^^
Grace C. Lehan Memorial Weather Station Historical Data
Daily Summary for May 2, 2021 Units:  Metric    English   Both
Daily Weekly Monthly Yearly
  High: Low: Average:
Temperature: 15.4 °C 2.2 °C 9.2 °C
Dew Point: 10.7 °C -1.2 °C 6.2 °C
Humidity: 96% 65.9% 83%
Wind Speed: 25.7km/h 0km/h 1.8km/h
Wind Gust: 46.7km/h - -
Wind- - SW
Pressure: 1017.5 hPa 997.2 hPa -
Precipitation: 3.05 mm    
 
 
Tabular Data for May 2, 2021
Time Temperature Dew Point Pressure Wind Wind Speed Wind Gust Humidity Rainfall Rate (Hourly) solar
00:04 2.6 °C -0.7 °C 1017.5 hPa Calm     79% 0 mm 0 W/m2
00:09 2.6 °C -0.7 °C 1017.5 hPa Calm     79% 0 mm 0 W/m2
00:14 2.5 °C -0.8 °C 1017.5 hPa Calm     79% 0 mm 0 W/m2
00:19 2.4 °C -0.8 °C 1017.5 hPa Calm     79% 0 mm 0 W/m2
00:24 2.4 °C -0.9 °C 1017.2 hPa Calm     78.8% 0 mm 0 W/m2
00:29 2.3 °C -1.1 °C 1017.2 hPa Calm     78% 0 mm 0 W/m2
00:34 2.3 °C -1.1 °C 1017.2 hPa Calm     78% 0 mm 0 W/m2
00:39 2.3 °C -1.2 °C 1017.2 hPa Calm     78% 0 mm 0 W/m2
00:44 2.2 °C -1.1 °C 1017.2 hPa Calm     78.8% 0 mm 0 W/m2
00:49 2.2 °C -1.1 °C 1016.8 hPa Calm     79% 0 mm 0 W/m2
00:54 2.2 °C -1.1 °C 1016.8 hPa Calm     79% 0 mm 0 W/m2
00:59 2.2 °C -1.1 °C 1016.8 hPa Calm     79% 0 mm 0 W/m2
01:04 2.2 °C -0.9 °C 1016.5 hPa Calm     80% 0 mm 0 W/m2
01:09 2.3 °C -0.8 °C 1016.8 hPa Calm     80% 0 mm 0 W/m2
01:14 2.3 °C -0.8 °C 1016.8 hPa Calm     80% 0 mm 0 W/m2
01:19 2.3 °C -0.7 °C 1016.8 hPa Calm     80.4% 0 mm 0 W/m2
01:24 2.3 °C -0.6 °C 1016.8 hPa Calm     81% 0 mm 0 W/m2
01:29 2.3 °C -0.7 °C 1016.8 hPa Calm     81% 0 mm 0 W/m2
01:33 2.3 °C -0.7 °C 1016.5 hPa Calm     80.5% 0 mm 0 W/m2
01:37 2.2 °C -0.8 °C 1016.5 hPa Calm     80% 0 mm 0 W/m2
02:00 2.6 °C -0.4 °C 1016.1 hPa Calm     81% 0 mm 0 W/m2
02:30 3.3 °C 0.2 °C 1015.8 hPa Calm   1.6 km/h 80% 0 mm 0 W/m2
03:00 3.6 °C 0.6 °C 1014.8 hPa Calm     81% 0 mm 0 W/m2
03:30 3.3 °C 0.9 °C 1014.1 hPa Calm     84% 0 mm 0 W/m2
04:04 3.5 °C 1.7 °C 1014.1 hPa Calm     87.8% 0.51 mm 0 W/m2
04:09 3.6 °C 1.8 °C 1013.4 hPa Calm     88% 0.51 mm 0 W/m2
04:14 3.6 °C 1.8 °C 1013.1 hPa Calm     88.4% 0.51 mm 0 W/m2
04:19 3.6 °C 2 °C 1013.1 hPa Calm     89% 0.51 mm 0 W/m2
04:24 3.6 °C 2 °C 1012.8 hPa Calm     89% 0.51 mm 0 W/m2
04:29 3.6 °C 2 °C 1012.8 hPa Calm     89% 0.51 mm 0 W/m2
04:34 3.7 °C 2.1 °C 1012.8 hPa Calm     89.4% 0.76 mm 0 W/m2
04:39 3.6 °C 2.2 °C 1012.8 hPa Calm     90% 0.76 mm 0 W/m2
04:44 3.6 °C 2.1 °C 1012.8 hPa Calm     90% 0.76 mm 0 W/m2
04:49 3.5 °C 2.1 °C 1012.4 hPa Calm     90% 0.76 mm 0 W/m2
04:54 3.5 °C 2 °C 1012.8 hPa Calm     90% 0.76 mm 0 W/m2
04:59 3.5 °C 2.2 °C 1012.4 hPa Calm     90.9% 0.76 mm 0 W/m2
05:04 3.5 °C 2.2 °C 1012.4 hPa Calm     91% 0.76 mm 0 W/m2
05:09 3.5 °C 2.2 °C 1012.1 hPa Calm     91% 0.25 mm 0 W/m2
05:14 3.6 °C 2.2 °C 1012.1 hPa Calm     91% 0.25 mm 0 W/m2
05:19 3.6 °C 2.3 °C 1012.1 hPa Calm     91.2% 0.25 mm 0 W/m2
05:24 3.7 °C 2.4 °C 1012.1 hPa Calm     91.7% 0.25 mm 0 W/m2
05:29 3.7 °C 2.6 °C 1012.1 hPa Calm     92% 0.51 mm 0 W/m2
05:34 3.8 °C 2.6 °C 1011.7 hPa Calm     92% 0.51 mm 0 W/m2
05:39 3.8 °C 2.7 °C 1011.7 hPa Calm     92% 0.51 mm 0 W/m2
05:44 3.9 °C 2.7 °C 1011.7 hPa Calm     92% 0.51 mm 0 W/m2
05:49 3.9 °C 2.8 °C 1011.7 hPa Calm     92% 0.51 mm 0 W/m2
05:54 3.9 °C 2.9 °C 1011.4 hPa Calm     92.7% 0.51 mm 0 W/m2
05:59 4 °C 2.9 °C 1011.7 hPa Calm     93% 0.51 mm 0 W/m2
06:04 4.1 °C 3 °C 1011.4 hPa Calm     93% 0.25 mm 0 W/m2
06:09 4.1 °C 3.1 °C 1011.4 hPa Calm   1.6 km/h 93% 0.25 mm 0 W/m2
06:14 4.2 °C 3.2 °C 1011.4 hPa Calm   1.6 km/h 93% 0.25 mm 0 W/m2
06:17 4.2 °C 3.2 °C 1011.4 hPa Calm   1.6 km/h 93% 0.25 mm 0 W/m2
06:30 4.6 °C 3.5 °C 1010.7 hPa Calm   1.6 km/h 93% 0.25 mm 0 W/m2
07:00 4.8 °C 3.9 °C 1010.4 hPa Calm     94% 0 mm 0 W/m2
07:30 5 °C 4.1 °C 1010 hPa Calm     94% 0 mm 4 W/m2
08:04 5.2 °C 4.3 °C 1010 hPa Calm     94% 0.25 mm 18 W/m2
08:09 5.2 °C 4.4 °C 1009.4 hPa Calm     94% 0.25 mm 12 W/m2
08:14 5.3 °C 4.4 °C 1009 hPa Calm     94% 0.25 mm 9 W/m2
08:19 5.4 °C 4.5 °C 1009 hPa Calm     94% 0.25 mm 14 W/m2
08:24 5.4 °C 4.7 °C 1009 hPa Calm     94.5% 0.25 mm 18 W/m2
08:29 5.5 °C 4.8 °C 1009 hPa Calm     95% 0.25 mm 21 W/m2
08:34 5.6 °C 4.8 °C 1008.7 hPa Calm     95% 0.25 mm 37 W/m2
08:39 5.7 °C 4.9 °C 1008.7 hPa Calm     95% 0.25 mm 37 W/m2
08:44 5.7 °C 5 °C 1008.7 hPa Calm     95% 0.25 mm 32 W/m2
08:49 5.8 °C 5.1 °C 1008.7 hPa Calm     95% 0.25 mm 30 W/m2
08:54 5.9 °C 5.1 °C 1008.7 hPa Calm     95% 0.25 mm 32 W/m2
08:59 5.9 °C 5.2 °C 1008.7 hPa Calm     95% 0.25 mm 30 W/m2
09:04 6.1 °C 5.3 °C 1008.4 hPa Calm     95% 0.25 mm 76 W/m2
09:09 6.2 °C 5.5 °C 1008.4 hPa Calm     95% 0 mm 200 W/m2
09:14 6.6 °C 5.8 °C 1008 hPa Calm   1.6 km/h 95% 0 mm 199 W/m2
09:19 7.1 °C 6.4 °C 1008 hPa Calm   1.6 km/h 95.4% 0 mm 225 W/m2
09:24 7.7 °C 7.1 °C 1008 hPa West 0.6 km/h 4.8 km/h 96% 0 mm 202 W/m2
09:29 8.2 °C 7.6 °C 1008 hPa West 1.1 km/h 4.8 km/h 96% 0 mm 107 W/m2
09:34 8.5 °C 7.9 °C 1007.7 hPa Calm   4.8 km/h 96% 0 mm 141 W/m2
09:39 8.7 °C 8.2 °C 1007.7 hPa West 0.3 km/h 4.8 km/h 96% 0 mm 155 W/m2
09:44 8.9 °C 8.3 °C 1007.7 hPa Calm   4.8 km/h 96% 0 mm 107 W/m2
09:49 9.2 °C 8.6 °C 1007.7 hPa West 0.6 km/h 4.8 km/h 96% 0 mm 127 W/m2
09:54 9.4 °C 8.8 °C 1007.3 hPa West 1.6 km/h 6.4 km/h 96% 0 mm 142 W/m2
09:59 9.8 °C 9.2 °C 1007.3 hPa West 1.3 km/h 6.4 km/h 96% 0 mm 185 W/m2
10:04 10.2 °C 9.6 °C 1007.3 hPa WSW 1.4 km/h 11.3 km/h 95.8% 0 mm 283 W/m2
10:09 10.6 °C 9.9 °C 1007 hPa SW 3.2 km/h 11.3 km/h 95.2% 0 mm 299 W/m2
10:14 11.1 °C 10.3 °C 1007 hPa SW 3.5 km/h 11.3 km/h 94.7% 0 mm 330 W/m2
10:19 11.6 °C 10.5 °C 1006.7 hPa SSW 4.5 km/h 14.5 km/h 93.3% 0 mm 390 W/m2
10:24 12.1 °C 10.7 °C 1006.3 hPa SW 1.9 km/h 14.5 km/h 90.6% 0 mm 390 W/m2
10:29 12.6 °C 10.4 °C 1006.3 hPa SSW 3.5 km/h 14.5 km/h 86.7% 0 mm 216 W/m2
10:34 13 °C 10.4 °C 1006.3 hPa SSW 3.5 km/h 14.5 km/h 84.1% 0 mm 192 W/m2
10:39 13.3 °C 10.2 °C 1006 hPa SW 5.5 km/h 16.1 km/h 81.7% 0 mm 301 W/m2
10:44 13.4 °C 10.2 °C 1006 hPa SSW 3.1 km/h 16.1 km/h 80.5% 0 mm 301 W/m2
10:49 13.6 °C 10.1 °C 1005.6 hPa SW 4.2 km/h 19.3 km/h 79.6% 0 mm 234 W/m2
10:54 13.6 °C 9.8 °C 1005.6 hPa SW 2.6 km/h 19.3 km/h 78% 0 mm 192 W/m2
10:59 13.6 °C 9.8 °C 1005.6 hPa SW 1.3 km/h 19.3 km/h 78% 0 mm 167 W/m2
11:04 13.6 °C 9.8 °C 1005.3 hPa SW 1.4 km/h 19.3 km/h 77.8% 0 mm 153 W/m2
11:09 13.6 °C 9.7 °C 1005.3 hPa SW 0.3 km/h 6.4 km/h 77.4% 0 mm 179 W/m2
11:14 13.7 °C 9.7 °C 1005 hPa SW 0.8 km/h 6.4 km/h 77% 0 mm 135 W/m2
11:19 13.7 °C 9.4 °C 1004.6 hPa SW 3.2 km/h 17.7 km/h 75.5% 0 mm 162 W/m2
11:24 13.8 °C 9.5 °C 1004.6 hPa SW 2.6 km/h 17.7 km/h 75.3% 0 mm 153 W/m2
11:29 13.8 °C 9.5 °C 1004.6 hPa SW 1.8 km/h 17.7 km/h 75% 0 mm 148 W/m2
11:34 13.9 °C 9.6 °C 1004.6 hPa WSW 0.8 km/h 17.7 km/h 75.3% 0 mm 172 W/m2
11:39 14 °C 9.6 °C 1004.6 hPa SW 3.7 km/h 17.7 km/h 74.7% 0 mm 179 W/m2
11:44 14.1 °C 9.4 °C 1004.3 hPa SW 3.4 km/h 17.7 km/h 73.8% 0 mm 160 W/m2
11:49 14.1 °C 9.3 °C 1004.3 hPa SW 0.8 km/h 17.7 km/h 73.3% 0 mm 130 W/m2
11:54 14.1 °C 9.4 °C 1004.3 hPa SW 2.1 km/h 17.7 km/h 73.7% 0 mm 160 W/m2
11:59 14.1 °C 9.4 °C 1004.3 hPa SW 1.1 km/h 17.7 km/h 73.5% 0 mm 186 W/m2
12:09 14.2 °C 9.4 °C 1003.9 hPa SW 3.5 km/h 11.3 km/h 72.8% 0 mm 313 W/m2
12:14 14.4 °C 9.6 °C 1003.6 hPa SW 3.9 km/h 16.1 km/h 72.6% 0 mm 272 W/m2
12:19 14.6 °C 9.4 °C 1003.6 hPa SW 3.5 km/h 16.1 km/h 71.2% 0 mm 272 W/m2
12:24 14.8 °C 9.5 °C 1003.3 hPa SSW 3.4 km/h 16.1 km/h 70.3% 0 mm 192 W/m2
12:29 14.9 °C 9.3 °C 1003.3 hPa SW 2.1 km/h 16.1 km/h 69% 0 mm 165 W/m2
12:34 14.9 °C 9.4 °C 1002.9 hPa SW 1.4 km/h 16.1 km/h 69.9% 0 mm 431 W/m2
12:39 15.1 °C 9.4 °C 1002.6 hPa SW 1.9 km/h 8 km/h 69% 0 mm 424 W/m2
12:44 15.3 °C 9.6 °C 1002.6 hPa SW 2.1 km/h 9.7 km/h 68.5% 0 mm 248 W/m2
12:49 15.4 °C 9.3 °C 1002.6 hPa SW 2.1 km/h 11.3 km/h 67% 0 mm 162 W/m2
12:54 15.3 °C 9.2 °C 1002.6 hPa SW 3.4 km/h 11.3 km/h 67% 0 mm 135 W/m2
12:59 15.2 °C 8.9 °C 1002.6 hPa SW 6.8 km/h 16.1 km/h 66.2% 0 mm 90 W/m2
13:04 14.9 °C 8.8 °C 1002.6 hPa SW 3.9 km/h 16.1 km/h 66.8% 0 mm 132 W/m2
13:09 14.8 °C 8.8 °C 1002.3 hPa SW 4.5 km/h 17.7 km/h 67% 0 mm 137 W/m2
13:14 14.8 °C 8.7 °C 1002.3 hPa SW 3.2 km/h 17.7 km/h 67% 0 mm 141 W/m2
13:19 14.7 °C 8.7 °C 1002.3 hPa SW 1 km/h 17.7 km/h 67% 0 mm 137 W/m2
13:24 14.8 °C 8.7 °C 1001.9 hPa WSW 2.9 km/h 17.7 km/h 67.1% 0 mm 114 W/m2
13:29 14.7 °C 8.7 °C 1001.9 hPa SW 3.2 km/h 17.7 km/h 67% 0 mm 98 W/m2
13:34 14.7 °C 8.6 °C 1001.9 hPa SW 4.5 km/h 17.7 km/h 66.7% 0 mm 91 W/m2
13:39 14.6 °C 8.3 °C 1001.6 hPa SW 5.1 km/h 19.3 km/h 65.9% 0 mm 69 W/m2
13:44 14.5 °C 8.2 °C 1001.6 hPa SW 3.9 km/h 19.3 km/h 65.9% 0 mm 67 W/m2
13:49 14.4 °C 8.2 °C 1001.6 hPa SW 2.4 km/h 19.3 km/h 66.4% 0 mm 69 W/m2
13:54 14.3 °C 8.2 °C 1001.6 hPa SW 1.1 km/h 19.3 km/h 66.7% 0 mm 81 W/m2
13:59 14.2 °C 8.2 °C 1001.6 hPa SW 1 km/h 19.3 km/h 67% 0 mm 81 W/m2
14:04 14.2 °C 8.2 °C 1001.6 hPa WSW 1 km/h 19.3 km/h 67.2% 0 mm 81 W/m2
14:09 14.2 °C 8.2 °C 1001.6 hPa SW 2.9 km/h 14.5 km/h 67.2% 0 mm 81 W/m2
14:14 14.2 °C 8.2 °C 1001.6 hPa SW 3.9 km/h 16.1 km/h 67% 0 mm 76 W/m2
14:19 14.2 °C 8.1 °C 1001.6 hPa SW 4 km/h 17.7 km/h 66.6% 0 mm 62 W/m2
14:24 14.2 °C 8.1 °C 1001.6 hPa SW 3.2 km/h 17.7 km/h 66.5% 0 mm 42 W/m2
14:29 14.2 °C 8.4 °C 1001.6 hPa SW 2.3 km/h 17.7 km/h 68.2% 0 mm 54 W/m2
14:34 14.1 °C 8.4 °C 1001.2 hPa SW 4 km/h 17.7 km/h 68.7% 0 mm 54 W/m2
14:39 13.9 °C 8.5 °C 1001.2 hPa SW 3.5 km/h 14.5 km/h 70% 0 mm 44 W/m2
14:44 13.7 °C 8.4 °C 1001.2 hPa SW 3.5 km/h 17.7 km/h 70% 0 mm 26 W/m2
14:49 13.6 °C 8.3 °C 1001.2 hPa SSW 1.8 km/h 17.7 km/h 70.5% 0 mm 25 W/m2
14:54 13.5 °C 8.7 °C 1001.2 hPa South 1.3 km/h 17.7 km/h 72.8% 0 mm 25 W/m2
14:59 13.4 °C 8.9 °C 1000.9 hPa South 1.1 km/h 17.7 km/h 74.1% 0 mm 26 W/m2
15:04 13.2 °C 8.9 °C 1000.9 hPa South 0.6 km/h 17.7 km/h 75% 0 mm 35 W/m2
15:09 13.1 °C 8.8 °C 1000.9 hPa South 2.1 km/h 8 km/h 75% 0 mm 37 W/m2
15:14 13.1 °C 8.7 °C 1001.2 hPa SSW 1 km/h 8 km/h 75% 0 mm 25 W/m2
15:19 12.9 °C 8.7 °C 1001.2 hPa SSW 1 km/h 8 km/h 75% 0 mm 14 W/m2
15:24 12.9 °C 8.7 °C 1000.9 hPa South 1.6 km/h 8 km/h 75.8% 0 mm 74 W/m2
15:29 12.7 °C 8.8 °C 1000.6 hPa South 2.7 km/h 8 km/h 76.8% 0 mm 69 W/m2
15:34 12.6 °C 8.7 °C 1000.6 hPa SSE 2.1 km/h 8 km/h 77.1% 0 mm 25 W/m2
15:39 12.4 °C 8.7 °C 1000.2 hPa South 2.3 km/h 11.3 km/h 78% 0 mm 11 W/m2
15:44 12.3 °C 8.6 °C 1000.2 hPa SSW 1.3 km/h 11.3 km/h 78% 0 mm 9 W/m2
15:49 12.3 °C 8.6 °C 1000.6 hPa SSW 1.9 km/h 11.3 km/h 78% 0 mm 7 W/m2
15:54 12.2 °C 8.5 °C 1000.6 hPa SSW 1.9 km/h 11.3 km/h 78% 0 mm 5 W/m2
15:59 12.2 °C 8.4 °C 1000.2 hPa SSW 2.9 km/h 11.3 km/h 77.5% 0 mm 5 W/m2
16:00 12.2 °C 8.3 °C 1000.2 hPa SSW 1.6 km/h 11.3 km/h 77% 0 mm 5 W/m2
16:09 12.1 °C 8.2 °C 1000.2 hPa SSW 2.7 km/h 8 km/h 77% 0 mm 7 W/m2
16:14 12.2 °C 8.3 °C 999.9 hPa SW 5.3 km/h 17.7 km/h 77% 0 mm 0 W/m2
16:19 12.2 °C 8.3 °C 1000.2 hPa SW 3.5 km/h 17.7 km/h 77% 0 mm 0 W/m2
16:24 12.2 °C 8.3 °C 1000.2 hPa SW 3.4 km/h 17.7 km/h 77% 0 mm 0 W/m2
16:29 12.2 °C 8.3 °C 999.9 hPa SW 2.7 km/h 17.7 km/h 77% 0 mm 0 W/m2
16:34 12.2 °C 8.1 °C 999.9 hPa SW 3.5 km/h 20.9 km/h 76.3% 0 mm 0 W/m2
16:39 12.2 °C 8.1 °C 999.9 hPa SW 1.8 km/h 20.9 km/h 76% 0 mm 0 W/m2
16:44 12.2 °C 8.1 °C 999.9 hPa SW 2.3 km/h 20.9 km/h 76% 0 mm 0 W/m2
16:49 12.2 °C 8.1 °C 999.9 hPa SW 1.3 km/h 20.9 km/h 76% 0 mm 0 W/m2
16:54 12.3 °C 8.2 °C 999.9 hPa SW 1.9 km/h 20.9 km/h 76% 0 mm 0 W/m2
16:59 12.3 °C 8.2 °C 999.9 hPa SW 0.8 km/h 20.9 km/h 76% 0 mm 0 W/m2
17:04 12.2 °C 8.1 °C 999.5 hPa SW 2.4 km/h 20.9 km/h 76% 0 mm 0 W/m2
17:09 12.1 °C 8.1 °C 999.5 hPa SW 0.5 km/h 16.1 km/h 76.1% 0 mm 0 W/m2
17:14 12 °C 8.1 °C 999.5 hPa WSW 2.1 km/h 16.1 km/h 77% 0 mm 0 W/m2
17:19 11.9 °C 8.2 °C 999.5 hPa SW 3.2 km/h 16.1 km/h 77.7% 0 mm 0 W/m2
17:24 11.9 °C 8.2 °C 999.5 hPa SW 1.8 km/h 16.1 km/h 78.2% 0 mm 0 W/m2
17:29 11.8 °C 8.3 °C 999.5 hPa SW 2.6 km/h 17.7 km/h 79% 0 mm 0 W/m2
17:34 11.8 °C 8.3 °C 999.5 hPa SW 1.6 km/h 17.7 km/h 79% 0 mm 0 W/m2
17:39 11.8 °C 8.4 °C 999.5 hPa SW 1 km/h 11.3 km/h 79.8% 0 mm 0 W/m2
17:44 11.8 °C 8.4 °C 999.5 hPa SW 1.4 km/h 11.3 km/h 80% 0 mm 0 W/m2
17:49 11.7 °C 8.4 °C 999.5 hPa SW 1.6 km/h 11.3 km/h 80% 0 mm 0 W/m2
17:54 11.7 °C 8.3 °C 999.2 hPa WSW 1.1 km/h 11.3 km/h 80% 0 mm 0 W/m2
17:59 11.6 °C 8.4 °C 999.2 hPa SW 4 km/h 16.1 km/h 80.5% 0 mm 0 W/m2
18:04 11.6 °C 8.4 °C 999.2 hPa SW 4.5 km/h 16.1 km/h 81% 0 mm 0 W/m2
18:09 11.6 °C 8.4 °C 999.2 hPa SW 3.9 km/h 14.5 km/h 81% 0 mm 0 W/m2
18:14 11.7 °C 8.5 °C 999.2 hPa SW 1.9 km/h 14.5 km/h 81% 0 mm 0 W/m2
18:19 11.7 °C 8.5 °C 999.2 hPa SW 3.2 km/h 16.1 km/h 81% 0 mm 0 W/m2
18:24 11.7 °C 8.5 °C 998.9 hPa SW 1.8 km/h 16.1 km/h 81% 0 mm 0 W/m2
18:29 11.7 °C 8.5 °C 999.2 hPa SW 1.9 km/h 16.1 km/h 81% 0 mm 0 W/m2
18:34 11.7 °C 8.5 °C 999.2 hPa SW 2.6 km/h 16.1 km/h 81% 0 mm 0 W/m2
18:39 11.6 °C 8.4 °C 999.2 hPa SW 2.4 km/h 12.9 km/h 81% 0 mm 0 W/m2
18:44 11.5 °C 8.4 °C 998.9 hPa SW 1.6 km/h 12.9 km/h 81.3% 0 mm 0 W/m2
18:49 11.4 °C 8.5 °C 998.9 hPa SW 1.6 km/h 12.9 km/h 82% 0 mm 0 W/m2
18:54 11.4 °C 8.4 °C 998.9 hPa SW 1.4 km/h 12.9 km/h 82% 0 mm 0 W/m2
18:59 11.3 °C 8.3 °C 998.9 hPa SW 1.6 km/h 12.9 km/h 82% 0 mm 0 W/m2
19:04 11.2 °C 8.4 °C 998.5 hPa SW 0.5 km/h 12.9 km/h 83% 0 mm 0 W/m2
19:09 11.1 °C 8.3 °C 998.5 hPa SW 1 km/h 9.7 km/h 83% 0 mm 0 W/m2
19:14 11 °C 8.3 °C 998.2 hPa SW 1.3 km/h 9.7 km/h 83% 0 mm 0 W/m2
19:19 10.9 °C 8.3 °C 998.2 hPa SW 1.3 km/h 9.7 km/h 84% 0 mm 0 W/m2
19:24 10.9 °C 8.3 °C 998.2 hPa SW 1.1 km/h 9.7 km/h 84% 0 mm 0 W/m2
19:29 10.8 °C 8.2 °C 998.2 hPa SW 0.3 km/h 9.7 km/h 84% 0 mm 0 W/m2
19:34 10.8 °C 8.2 °C 998.2 hPa Calm   9.7 km/h 84% 0 mm 0 W/m2
19:39 10.7 °C 8.2 °C 997.9 hPa Calm   1.6 km/h 84.6% 0 mm 0 W/m2
19:44 10.7 °C 8.2 °C 997.9 hPa SW 0.2 km/h 3.2 km/h 85% 0 mm 0 W/m2
19:49 10.6 °C 8.2 °C 997.9 hPa SW 0.5 km/h 4.8 km/h 85% 0 mm 0 W/m2
19:54 10.6 °C 8.2 °C 997.5 hPa SW 1 km/h 6.4 km/h 85% 0 mm 0 W/m2
19:59 10.6 °C 8.2 °C 997.5 hPa SW 0.5 km/h 6.4 km/h 85.4% 0 mm 0 W/m2
20:00 10.6 °C 8.3 °C 997.2 hPa Calm   6.4 km/h 86% 0 mm 0 W/m2
20:09 10.6 °C 8.3 °C 997.2 hPa SW 1 km/h 6.4 km/h 85.7% 0 mm 0 W/m2
20:14 10.6 °C 8.2 °C 997.2 hPa SW 0.2 km/h 6.4 km/h 85% 0 mm 0 W/m2
20:19 10.6 °C 8.2 °C 997.2 hPa SW 1.4 km/h 6.4 km/h 85% 0 mm 0 W/m2
20:24 10.6 °C 8.2 °C 997.2 hPa Calm   6.4 km/h 85% 0 mm 0 W/m2
20:29 10.6 °C 8.1 °C 997.2 hPa SW 0.2 km/h 6.4 km/h 85% 0 mm 0 W/m2
20:34 10.5 °C 8.1 °C 997.2 hPa Calm   6.4 km/h 85% 0 mm 0 W/m2
20:39 10.4 °C 8.1 °C 997.2 hPa Calm     85% 0 mm 0 W/m2
20:44 10.4 °C 8 °C 997.2 hPa Calm     85% 0 mm 0 W/m2
20:49 10.4 °C 7.9 °C 997.2 hPa Calm     85% 0 mm 0 W/m2
20:54 10.3 °C 7.9 °C 997.2 hPa Calm     85% 0 mm 0 W/m2
20:59 10.2 °C 7.8 °C 997.2 hPa Calm     85% 0 mm 0 W/m2
21:04 10.1 °C 7.7 °C 997.2 hPa Calm     85% 0 mm 0 W/m2
21:09 10 °C 7.6 °C 997.5 hPa Calm     85% 0 mm 0 W/m2
21:14 9.9 °C 7.5 °C 997.5 hPa SW 0.5 km/h 4.8 km/h 85% 0 mm 0 W/m2
21:19 9.8 °C 7.4 °C 997.5 hPa SW 0.2 km/h 4.8 km/h 85% 0 mm 0 W/m2
21:24 9.8 °C 7.4 °C 999.2 hPa NW 12.2 km/h 38.6 km/h 85% 0 mm 0 W/m2
21:29 9.8 °C 6.7 °C 999.9 hPa NW 25.7 km/h 46.7 km/h 80.9% 0 mm 0 W/m2
21:34 9.4 °C 5.6 °C 1000.2 hPa NW 20.1 km/h 46.7 km/h 76.7% 0 mm 0 W/m2
21:39 8.8 °C 5.1 °C 1000.2 hPa NW 23.5 km/h 40.2 km/h 77.5% 0 mm 0 W/m2
21:44 8.1 °C 5.1 °C 1000.2 hPa NW 20.9 km/h 40.2 km/h 81.1% 0.51 mm 0 W/m2
21:49 7.5 °C 5 °C 1000.2 hPa WNW 15.9 km/h 40.2 km/h 84% 1.02 mm 0 W/m2
21:54 7.1 °C 4.9 °C 1000.2 hPa WNW 14.3 km/h 40.2 km/h 85.6% 1.52 mm 0 W/m2
21:59 6.8 °C 4.8 °C 999.9 hPa WNW 10.9 km/h 40.2 km/h 86.9% 1.52 mm 0 W/m2
22:04 6.7 °C 4.8 °C 999.9 hPa WNW 7.4 km/h 40.2 km/h 87.9% 1.78 mm 0 W/m2
22:09 6.6 °C 4.8 °C 999.9 hPa WNW 6.3 km/h 22.5 km/h 88.6% 1.78 mm 0 W/m2
22:14 6.5 °C 4.8 °C 999.9 hPa West 3.5 km/h 22.5 km/h 89% 1.78 mm 0 W/m2
22:19 6.4 °C 4.8 °C 999.9 hPa WNW 1.9 km/h 22.5 km/h 89% 1.78 mm 0 W/m2
22:24 6.4 °C 4.8 °C 999.9 hPa WNW 1.6 km/h 22.5 km/h 89.4% 1.78 mm 0 W/m2
22:29 6.4 °C 4.9 °C 1000.2 hPa WNW 0.2 km/h 22.5 km/h 90% 1.78 mm 0 W/m2
22:34 6.4 °C 4.9 °C 1000.2 hPa Calm   22.5 km/h 90% 1.78 mm 0 W/m2
22:39 6.3 °C 4.8 °C 1000.2 hPa Calm     90% 1.78 mm 0 W/m2
22:44 6.3 °C 4.8 °C 1000.2 hPa Calm     90% 1.78 mm 0 W/m2
22:49 6.3 °C 4.8 °C 1000.2 hPa Calm     90.1% 1.78 mm 0 W/m2
22:54 6.3 °C 4.9 °C 1000.2 hPa Calm     91% 1.78 mm 0 W/m2
22:59 6.2 °C 4.9 °C 1000.2 hPa Calm     91% 1.78 mm 0 W/m2
23:00 6.2 °C 4.9 °C 1000.2 hPa Calm     91% 1.78 mm 0 W/m2
23:09 6.1 °C 4.8 °C 1000.2 hPa Calm     91% 0.25 mm 0 W/m2
23:14 6.1 °C 4.7 °C 1000.2 hPa Calm     91% 0.25 mm 0 W/m2
23:19 6 °C 4.6 °C 1000.2 hPa WNW 0.3 km/h 4.8 km/h 91% 0.25 mm 0 W/m2
23:24 5.9 °C 4.6 °C 1000.2 hPa WNW 0.2 km/h 4.8 km/h 91% 0.25 mm 0 W/m2
23:29 5.9 °C 4.6 °C 1000.2 hPa Calm   4.8 km/h 91% 0.25 mm 0 W/m2
23:34 5.9 °C 4.5 °C 1000.2 hPa Calm   4.8 km/h 91% 0.25 mm 0 W/m2
23:39 5.8 °C 4.4 °C 1000.2 hPa WNW 0.5 km/h 4.8 km/h 91% 0 mm 0 W/m2
23:44 5.8 °C 4.4 °C 1000.2 hPa WNW 0.5 km/h 4.8 km/h 91% 0 mm 0 W/m2
23:49 5.7 °C 4.3 °C 1000.2 hPa WNW 1 km/h 9.7 km/h 91% 0 mm 0 W/m2
23:54 5.6 °C 4.3 °C 1000.2 hPa WNW 0.3 km/h 9.7 km/h 91% 0 mm 0 W/m2
23:59 5.6 °C 4.3 °C 1000.2 hPa West 1 km/h 9.7 km/h 91% 0 mm 0 W/m2
Hartford County Weather
Compliments of Weather Underground - 4 mb